createdAt,value
2022-09-21T00:01:17.816Z,94278.28
2022-09-21T00:03:45.054Z,94274.91
2022-09-21T00:06:15.473Z,94272.59
2022-09-21T00:08:42.705Z,94287.00
2022-09-21T00:11:16.531Z,94271.06
2022-09-21T00:13:46.878Z,94279.66
2022-09-21T00:16:16.185Z,94281.56
2022-09-21T00:18:43.696Z,94279.38
2022-09-21T00:21:13.941Z,94276.66
2022-09-21T00:23:41.469Z,94281.28
2022-09-21T00:26:14.239Z,94276.34
2022-09-21T00:28:41.384Z,94268.28
2022-09-21T00:31:12.876Z,94265.41
2022-09-21T00:33:41.230Z,94267.94
2022-09-21T00:36:10.392Z,94274.84
2022-09-21T00:38:37.795Z,94266.25
2022-09-21T00:41:06.911Z,94272.25
2022-09-21T00:43:38.303Z,94270.19
2022-09-21T00:46:21.646Z,94265.88
2022-09-21T00:48:48.719Z,94271.78
2022-09-21T00:51:15.924Z,94263.56
2022-09-21T00:53:43.539Z,94268.84
2022-09-21T00:56:11.821Z,94267.94
2022-09-21T00:58:47.112Z,94255.75
2022-09-21T01:01:16.556Z,94257.22
2022-09-21T01:03:45.757Z,94263.94
2022-09-21T01:06:14.900Z,94265.56
2022-09-21T01:08:42.932Z,94263.00
2022-09-21T01:11:31.023Z,94264.00
2022-09-21T01:14:03.495Z,94275.31
2022-09-21T01:17:03.818Z,94278.78
2022-09-21T01:19:34.772Z,94277.22
2022-09-21T01:22:28.569Z,94274.94
2022-09-21T01:25:35.120Z,94266.91
2022-09-21T01:28:16.909Z,94258.91
2022-09-21T01:30:48.365Z,94249.41
2022-09-21T01:33:23.362Z,94254.19
2022-09-21T01:36:07.078Z,94257.81
2022-09-21T01:38:41.196Z,94253.06
2022-09-21T01:41:12.144Z,94253.00
2022-09-21T01:43:46.944Z,94243.53
2022-09-21T01:46:22.031Z,94252.66
2022-09-21T01:48:54.001Z,94246.94
2022-09-21T01:51:25.191Z,94248.31
2022-09-21T01:53:56.774Z,94239.78
2022-09-21T01:56:33.224Z,94239.38
2022-09-21T01:59:14.712Z,94249.63
2022-09-21T02:01:46.754Z,94244.91
2022-09-21T02:04:13.863Z,94242.91
2022-09-21T02:06:45.127Z,94242.72
2022-09-21T02:09:12.224Z,94244.50
2022-09-21T02:11:42.578Z,94244.22
2022-09-21T02:14:12.885Z,94242.38
2022-09-21T02:17:02.337Z,94252.69
2022-09-21T02:19:43.866Z,94249.69
2022-09-21T02:22:16.549Z,94252.75
2022-09-21T02:25:15.673Z,94250.38
2022-09-21T02:27:56.326Z,94254.31
2022-09-21T02:30:25.381Z,94251.69
2022-09-21T02:33:13.421Z,94256.16
2022-09-21T02:35:56.081Z,94255.84
2022-09-21T02:38:26.536Z,94255.13
2022-09-21T02:41:05.788Z,94251.03
2022-09-21T02:43:42.030Z,94255.25
2022-09-21T02:46:16.661Z,94254.06
2022-09-21T02:48:53.311Z,94252.03
2022-09-21T02:51:27.351Z,94256.53
2022-09-21T02:53:55.008Z,94249.59
2022-09-21T02:56:22.034Z,94261.06
2022-09-21T02:58:57.034Z,94257.53
2022-09-21T03:01:26.403Z,94257.84
2022-09-21T03:03:53.103Z,94252.13
2022-09-21T03:06:24.910Z,94253.09
2022-09-21T03:08:51.622Z,94261.72
2022-09-21T03:11:19.888Z,94261.19
2022-09-21T03:13:47.053Z,94262.22
2022-09-21T03:16:14.023Z,94261.84
2022-09-21T03:18:44.050Z,94260.94
2022-09-21T03:21:12.316Z,94260.72
2022-09-21T03:23:39.721Z,94260.88
2022-09-21T03:26:06.573Z,94260.25
2022-09-21T03:28:33.160Z,94262.41
2022-09-21T03:31:00.122Z,94268.59
2022-09-21T03:33:26.751Z,94268.19
2022-09-21T03:35:53.582Z,94269.22
2022-09-21T03:38:21.515Z,94271.84
2022-09-21T03:40:49.450Z,94266.53
2022-09-21T03:43:17.406Z,94281.94
2022-09-21T03:45:45.638Z,94273.00
2022-09-21T03:48:12.987Z,94268.34
2022-09-21T03:50:39.969Z,94271.47
2022-09-21T03:53:07.234Z,94275.13
2022-09-21T03:55:33.855Z,94277.81
2022-09-21T03:58:00.952Z,94281.00
2022-09-21T04:00:28.608Z,94277.13
2022-09-21T04:02:55.859Z,94271.69
2022-09-21T04:05:23.382Z,94275.56
2022-09-21T04:07:50.183Z,94272.53
2022-09-21T04:10:21.953Z,94277.63
2022-09-21T04:12:48.642Z,94272.66
2022-09-21T04:15:19.601Z,94277.84
2022-09-21T04:17:46.932Z,94291.16
2022-09-21T04:20:13.547Z,94282.13
2022-09-21T04:22:43.561Z,94280.91
2022-09-21T04:25:11.024Z,94283.09
2022-09-21T04:27:37.635Z,94286.94
2022-09-21T04:30:05.259Z,94282.16
2022-09-21T04:32:32.136Z,94281.22
2022-09-21T04:34:58.851Z,94284.06
2022-09-21T04:37:25.608Z,94282.69
2022-09-21T04:39:52.181Z,94289.31
2022-09-21T04:42:19.071Z,94293.28
2022-09-21T04:44:45.684Z,94283.03
2022-09-21T04:47:12.383Z,94281.72
2022-09-21T04:49:38.999Z,94273.66
2022-09-21T04:52:06.100Z,94279.31
2022-09-21T04:54:32.953Z,94282.16
2022-09-21T04:56:59.567Z,94287.38
2022-09-21T04:59:26.201Z,94285.06
2022-09-21T05:01:52.938Z,94287.59
2022-09-21T05:04:19.626Z,94286.91
2022-09-21T05:06:46.270Z,94291.41
2022-09-21T05:09:31.472Z,94295.38
2022-09-21T05:11:58.077Z,94296.41
2022-09-21T05:14:24.643Z,94293.03
2022-09-21T05:16:51.296Z,94291.38
2022-09-21T05:19:18.125Z,94290.28
2022-09-21T05:21:44.721Z,94282.63
2022-09-21T05:24:11.325Z,94289.38
2022-09-21T05:26:38.400Z,94290.59
2022-09-21T05:29:05.507Z,94282.50
2022-09-21T05:31:32.194Z,94287.72
2022-09-21T05:34:07.512Z,94283.75
2022-09-21T05:37:12.933Z,94286.00
2022-09-21T05:39:39.825Z,94295.03
2022-09-21T05:42:07.100Z,94283.81
2022-09-21T05:44:33.970Z,94284.00
2022-09-21T05:47:06.187Z,94298.84
2022-09-21T05:49:57.660Z,94286.41
2022-09-21T05:52:42.439Z,94294.88
2022-09-21T05:55:21.228Z,94282.91
2022-09-21T05:58:12.540Z,94288.78
2022-09-21T06:01:15.793Z,94286.28
2022-09-21T06:03:43.334Z,94283.00
2022-09-21T06:06:10.385Z,94291.06
2022-09-21T06:08:37.042Z,94298.53
2022-09-21T06:11:03.728Z,94290.47
2022-09-21T06:13:30.375Z,94291.28
2022-09-21T06:15:57.135Z,94286.41
2022-09-21T06:18:23.737Z,94289.88
2022-09-21T06:20:50.331Z,94292.22
2022-09-21T06:23:17.025Z,94296.72
2022-09-21T06:25:43.658Z,94297.59
2022-09-21T06:28:13.611Z,94293.63
2022-09-21T06:30:42.486Z,94292.91
2022-09-21T06:33:09.723Z,94305.91
2022-09-21T06:35:37.095Z,94304.72
2022-09-21T06:38:06.387Z,94307.44
2022-09-21T06:40:35.532Z,94308.09
2022-09-21T06:43:03.900Z,94310.28
2022-09-21T06:45:31.209Z,94308.44
2022-09-21T06:47:58.914Z,94325.44
2022-09-21T06:50:25.758Z,94323.19
2022-09-21T06:52:52.414Z,94320.91
2022-09-21T06:55:19.311Z,94318.63
2022-09-21T06:57:46.443Z,94324.44
2022-09-21T07:00:14.369Z,94317.38
2022-09-21T07:02:45.492Z,94322.19
2022-09-21T07:05:12.634Z,94325.13
2022-09-21T07:07:40.385Z,94331.72
2022-09-21T07:10:14.598Z,94332.72
2022-09-21T07:12:43.301Z,94333.03
2022-09-21T07:15:10.520Z,94330.03
2022-09-21T07:17:39.246Z,94339.88
2022-09-21T07:20:08.108Z,94343.91
2022-09-21T07:22:35.470Z,94333.59
2022-09-21T07:25:02.431Z,94342.09
2022-09-21T07:27:31.305Z,94334.72
2022-09-21T07:29:58.599Z,94334.03
2022-09-21T07:32:26.211Z,94341.16
2022-09-21T07:34:56.496Z,94336.19
2022-09-21T07:37:27.318Z,94340.59
2022-09-21T07:39:53.947Z,94346.13
2022-09-21T07:42:22.957Z,94341.16
2022-09-21T07:44:50.929Z,94339.84
2022-09-21T07:47:18.118Z,94342.97
2022-09-21T07:49:46.997Z,94339.03
2022-09-21T07:52:15.450Z,94343.72
2022-09-21T07:54:42.198Z,94343.47
2022-09-21T07:57:27.534Z,94344.47
2022-09-21T07:59:58.512Z,94340.63
2022-09-21T08:02:26.087Z,94335.13
2022-09-21T08:04:53.766Z,94332.03
2022-09-21T08:07:20.586Z,94330.06
2022-09-21T08:09:49.426Z,94333.03
2022-09-21T08:12:22.398Z,94342.13
2022-09-21T08:14:49.594Z,94335.38
2022-09-21T08:17:16.299Z,94336.41
2022-09-21T08:19:42.939Z,94327.81
2022-09-21T08:22:09.553Z,94336.19
2022-09-21T08:24:37.437Z,94331.63
2022-09-21T08:27:04.308Z,94338.25
2022-09-21T08:29:30.945Z,94329.06
2022-09-21T08:31:58.187Z,94324.41
2022-09-21T08:34:25.013Z,94319.34
2022-09-21T08:36:55.257Z,94323.56
2022-09-21T08:39:22.656Z,94322.28
2022-09-21T08:41:55.904Z,94334.28
2022-09-21T08:44:28.465Z,94317.59
2022-09-21T08:47:07.839Z,94321.06
2022-09-21T08:49:38.124Z,94314.88
2022-09-21T08:52:08.887Z,94316.63
2022-09-21T08:54:38.057Z,94319.72
2022-09-21T08:57:06.115Z,94304.41
2022-09-21T08:59:35.324Z,94304.88
2022-09-21T09:02:21.042Z,94304.34
2022-09-21T09:05:04.173Z,94303.41
2022-09-21T09:08:03.060Z,94297.03
2022-09-21T09:10:57.360Z,94292.47
2022-09-21T09:13:40.117Z,94287.19
2022-09-21T09:16:25.849Z,94293.66
2022-09-21T09:18:54.249Z,94287.38
2022-09-21T09:21:34.616Z,94286.38
2022-09-21T09:24:15.697Z,94290.47
2022-09-21T09:26:59.582Z,94276.28
2022-09-21T09:30:02.033Z,94286.22
2022-09-21T09:32:52.192Z,94291.50
2022-09-21T09:35:27.600Z,94278.25
2022-09-21T09:38:06.116Z,94279.81
2022-09-21T09:41:05.657Z,94269.25
2022-09-21T09:43:46.577Z,94275.06
2022-09-21T09:46:37.077Z,94264.91
2022-09-21T09:49:38.594Z,94261.50
2022-09-21T09:52:06.434Z,94257.44
2022-09-21T09:54:35.885Z,94264.47
2022-09-21T09:57:04.687Z,94251.56
2022-09-21T09:59:54.040Z,94254.06
2022-09-21T10:02:24.134Z,94254.34
2022-09-21T10:05:06.474Z,94256.16
2022-09-21T10:07:47.857Z,94252.34
2022-09-21T10:10:29.571Z,94241.97
2022-09-21T10:13:25.005Z,94253.41
2022-09-21T10:16:00.423Z,94241.75
2022-09-21T10:18:29.888Z,94241.94
2022-09-21T10:21:09.123Z,94241.00
2022-09-21T10:23:37.739Z,94238.94
2022-09-21T10:26:13.796Z,94237.59
2022-09-21T10:29:01.577Z,94230.25
2022-09-21T10:31:31.707Z,94225.56
2022-09-21T10:34:04.155Z,94227.50
2022-09-21T10:36:32.228Z,94227.47
2022-09-21T10:39:21.341Z,94223.97
2022-09-21T10:41:58.767Z,94227.16
2022-09-21T10:44:41.002Z,94216.78
2022-09-21T10:47:36.663Z,94215.78
2022-09-21T10:50:23.773Z,94210.09
2022-09-21T10:52:56.775Z,94208.69
2022-09-21T10:55:25.282Z,94208.50
2022-09-21T10:57:53.322Z,94209.19
2022-09-21T11:00:25.778Z,94208.59
2022-09-21T11:02:54.956Z,94201.16
2022-09-21T11:05:29.683Z,94201.19
2022-09-21T11:08:05.765Z,94202.59
2022-09-21T11:10:34.620Z,94194.03
2022-09-21T11:13:33.280Z,94190.28
2022-09-21T11:16:26.489Z,94197.88
2022-09-21T11:19:10.159Z,94190.03
2022-09-21T11:22:16.873Z,94189.72
2022-09-21T11:24:52.675Z,94198.47
2022-09-21T11:27:25.191Z,94191.03
2022-09-21T11:30:15.404Z,94186.50
2022-09-21T11:32:57.090Z,94197.88
2022-09-21T11:35:42.329Z,94196.38
2022-09-21T11:38:20.784Z,94204.63
2022-09-21T11:41:02.290Z,94196.72
2022-09-21T11:44:09.418Z,94205.63
2022-09-21T11:46:59.512Z,94201.13
2022-09-21T11:49:44.761Z,94205.00
2022-09-21T11:52:14.022Z,94207.97
2022-09-21T11:54:49.141Z,94204.25
2022-09-21T11:57:38.852Z,94208.47
2022-09-21T12:00:21.545Z,94210.53
2022-09-21T12:03:19.016Z,94211.53
2022-09-21T12:06:03.090Z,94214.50
2022-09-21T12:08:49.109Z,94216.56
2022-09-21T12:11:21.775Z,94216.47
2022-09-21T12:14:09.544Z,94207.44
2022-09-21T12:17:00.488Z,94222.06
2022-09-21T12:19:33.949Z,94231.16
2022-09-21T12:22:17.729Z,94225.19
2022-09-21T12:24:49.259Z,94223.78
2022-09-21T12:27:38.284Z,94221.44
2022-09-21T12:30:13.345Z,94225.94
2022-09-21T12:32:49.561Z,94222.53
2022-09-21T12:35:42.412Z,94222.91
2022-09-21T12:38:24.180Z,94219.63
2022-09-21T12:41:09.397Z,94215.47
2022-09-21T12:43:41.174Z,94221.69
2022-09-21T12:46:19.792Z,94218.44
2022-09-21T12:48:46.543Z,94226.88
2022-09-21T12:51:22.955Z,94223.78
2022-09-21T12:53:53.525Z,94205.81
2022-09-21T12:56:28.017Z,94219.91
2022-09-21T12:59:12.155Z,94217.78
2022-09-21T13:01:49.740Z,94220.78
2022-09-21T13:04:31.538Z,94220.00
2022-09-21T13:07:00.935Z,94216.66
2022-09-21T13:09:29.779Z,94205.78
2022-09-21T13:12:07.632Z,94206.09
2022-09-21T13:14:41.649Z,94204.59
2022-09-21T13:17:23.618Z,94197.94
2022-09-21T13:19:58.060Z,94196.97
2022-09-21T13:22:26.813Z,94197.28
2022-09-21T13:25:19.126Z,94199.16
2022-09-21T13:28:04.319Z,94188.94
2022-09-21T13:30:32.845Z,94194.81
2022-09-21T13:33:00.131Z,94192.53
2022-09-21T13:35:45.145Z,94193.59
2022-09-21T13:38:25.038Z,94192.78
2022-09-21T13:41:04.078Z,94196.63
2022-09-21T13:44:18.695Z,94193.56
2022-09-21T13:46:52.609Z,94187.84
2022-09-21T13:49:25.608Z,94187.59
2022-09-21T13:52:13.572Z,94183.44
2022-09-21T13:54:57.381Z,94181.75
2022-09-21T13:57:32.946Z,94174.91
2022-09-21T14:00:19.998Z,94170.06
2022-09-21T14:02:57.074Z,94174.44
2022-09-21T14:05:44.519Z,94162.09
2022-09-21T14:08:16.884Z,94165.97
2022-09-21T14:11:08.128Z,94152.88
2022-09-21T14:14:09.609Z,94167.50
2022-09-21T14:16:39.531Z,94177.56
2022-09-21T14:19:33.458Z,94167.19
2022-09-21T14:22:09.579Z,94169.06
2022-09-21T14:24:42.784Z,94165.16
2022-09-21T14:27:25.336Z,94162.31
2022-09-21T14:30:22.646Z,94171.56
2022-09-21T14:33:12.131Z,94157.22
2022-09-21T14:35:45.655Z,94164.31
2022-09-21T14:38:14.882Z,94164.75
2022-09-21T14:40:50.112Z,94171.44
2022-09-21T14:43:33.881Z,94167.25
2022-09-21T14:46:25.655Z,94166.09
2022-09-21T14:49:27.694Z,94174.13
2022-09-21T14:52:20.237Z,94167.41
2022-09-21T14:55:09.884Z,94180.81
2022-09-21T14:57:55.840Z,94176.91
2022-09-21T15:00:26.645Z,94171.91
2022-09-21T15:03:26.415Z,94176.84
2022-09-21T15:06:01.500Z,94180.84
2022-09-21T15:09:09.865Z,94184.44
2022-09-21T15:11:42.229Z,94183.00
2022-09-21T15:14:27.203Z,94189.19
2022-09-21T15:16:53.778Z,94188.47
2022-09-21T15:19:28.561Z,94192.59
2022-09-21T15:22:19.792Z,94202.38
2022-09-21T15:24:51.296Z,94199.41
2022-09-21T15:27:19.867Z,94200.59
2022-09-21T15:29:50.097Z,94203.22
2022-09-21T15:32:40.464Z,94199.34
2022-09-21T15:35:19.526Z,94195.59
2022-09-21T15:37:46.761Z,94204.16
2022-09-21T15:40:34.100Z,94208.13
2022-09-21T15:43:15.850Z,94204.81
2022-09-21T15:46:12.357Z,94217.50
2022-09-21T15:48:42.145Z,94216.50
2022-09-21T15:51:16.936Z,94217.97
2022-09-21T15:54:08.591Z,94214.94
2022-09-21T15:56:41.301Z,94216.91
2022-09-21T15:59:16.085Z,94220.91
2022-09-21T16:01:47.717Z,94220.50
2022-09-21T16:04:23.685Z,94228.84
2022-09-21T16:07:05.738Z,94237.94
2022-09-21T16:09:42.797Z,94232.88
2022-09-21T16:12:34.402Z,94236.41
2022-09-21T16:15:04.772Z,94230.16
2022-09-21T16:17:38.375Z,94229.53
2022-09-21T16:20:19.644Z,94232.34
2022-09-21T16:23:03.681Z,94240.63
2022-09-21T16:25:34.755Z,94231.78
2022-09-21T16:28:25.985Z,94232.25
2022-09-21T16:30:57.548Z,94233.91
2022-09-21T16:33:43.140Z,94231.44
2022-09-21T16:36:33.966Z,94232.94
2022-09-21T16:39:06.187Z,94237.75
2022-09-21T16:41:42.568Z,94240.44
2022-09-21T16:44:20.592Z,94247.81
2022-09-21T16:46:59.584Z,94245.47
2022-09-21T16:49:31.253Z,94247.66
2022-09-21T16:51:59.375Z,94258.63
2022-09-21T16:54:27.364Z,94259.81
2022-09-21T16:56:59.825Z,94266.31
2022-09-21T16:59:26.841Z,94261.13
2022-09-21T17:01:56.742Z,94277.53
2022-09-21T17:04:26.967Z,94277.41
2022-09-21T17:06:55.178Z,94276.06
2022-09-21T17:09:27.093Z,94280.38
2022-09-21T17:11:56.448Z,94284.19
2022-09-21T17:14:23.880Z,94292.31
2022-09-21T17:16:56.337Z,94298.69
2022-09-21T17:19:23.084Z,94306.31
2022-09-21T17:21:50.397Z,94311.34
2022-09-21T17:24:38.973Z,94309.09
2022-09-21T17:27:03.959Z,94303.66
2022-09-21T17:29:31.199Z,94315.97
2022-09-21T17:31:58.867Z,94314.69
2022-09-21T17:34:28.016Z,94319.94
2022-09-21T17:36:55.356Z,94322.16
2022-09-21T17:39:24.577Z,94320.50
2022-09-21T17:41:55.065Z,94324.97
2022-09-21T17:44:48.496Z,94323.88
2022-09-21T17:47:28.020Z,94326.72
2022-09-21T17:49:55.634Z,94327.00
2022-09-21T17:52:42.039Z,94328.41
2022-09-21T17:55:12.417Z,94336.63
2022-09-21T17:57:41.803Z,94332.63
2022-09-21T18:00:21.037Z,94333.78
2022-09-21T18:02:49.093Z,94335.72
2022-09-21T18:05:22.839Z,94338.72
2022-09-21T18:07:51.082Z,94333.34
2022-09-21T18:10:23.014Z,94338.63
2022-09-21T18:13:41.303Z,94339.03
2022-09-21T18:16:19.826Z,94347.75
2022-09-21T18:18:56.516Z,94346.94
2022-09-21T18:21:27.935Z,94343.72
2022-09-21T18:24:31.057Z,94345.88
2022-09-21T18:26:59.289Z,94347.19
2022-09-21T18:29:40.827Z,94354.47
2022-09-21T18:32:26.025Z,94354.19
2022-09-21T18:35:08.706Z,94353.56
2022-09-21T18:37:56.174Z,94362.91
2022-09-21T18:40:37.873Z,94354.31
2022-09-21T18:43:10.322Z,94363.06
2022-09-21T18:45:55.318Z,94358.53
2022-09-21T18:48:48.503Z,94366.16
2022-09-21T18:51:44.299Z,94368.00
2022-09-21T18:54:22.530Z,94367.50
2022-09-21T18:56:50.791Z,94361.53
2022-09-21T18:59:21.608Z,94362.56
2022-09-21T19:01:50.276Z,94361.00
2022-09-21T19:04:18.742Z,94358.84
2022-09-21T19:06:57.365Z,94358.16
2022-09-21T19:09:44.893Z,94368.09
2022-09-21T19:12:24.400Z,94349.09
2022-09-21T19:14:53.993Z,94369.84
2022-09-21T19:18:02.270Z,94362.84
2022-09-21T19:20:52.112Z,94370.59
2022-09-21T19:23:31.183Z,94368.38
2022-09-21T19:26:39.204Z,94361.63
2022-09-21T19:29:18.975Z,94367.00
2022-09-21T19:31:45.705Z,94366.44
2022-09-21T19:34:18.362Z,94357.22
2022-09-21T19:36:49.415Z,94354.63
2022-09-21T19:39:16.522Z,94365.72
2022-09-21T19:42:30.343Z,94356.31
2022-09-21T19:45:06.684Z,94356.91
2022-09-21T19:47:53.145Z,94356.09
2022-09-21T19:50:36.216Z,94351.13
2022-09-21T19:53:24.318Z,94348.66
2022-09-21T19:56:09.571Z,94354.78
2022-09-21T19:58:55.071Z,94358.28
2022-09-21T20:01:21.998Z,94352.34
2022-09-21T20:03:49.200Z,94358.59
2022-09-21T20:06:26.766Z,94357.84
2022-09-21T20:09:07.739Z,94351.34
2022-09-21T20:11:54.562Z,94359.84
2022-09-21T20:14:39.765Z,94357.25
2022-09-21T20:17:12.360Z,94365.75
2022-09-21T20:19:51.091Z,94365.81
2022-09-21T20:22:24.322Z,94369.69
2022-09-21T20:24:58.256Z,94375.22
2022-09-21T20:27:35.201Z,94369.06
2022-09-21T20:30:03.997Z,94376.75
2022-09-21T20:32:31.063Z,94377.19
2022-09-21T20:34:57.729Z,94378.13
2022-09-21T20:37:26.306Z,94379.69
2022-09-21T20:39:54.142Z,94387.59
2022-09-21T20:42:23.854Z,94377.63
2022-09-21T20:44:51.353Z,94375.44
2022-09-21T20:47:19.262Z,94372.34
2022-09-21T20:49:47.059Z,94374.66
2022-09-21T20:52:15.948Z,94382.13
2022-09-21T20:54:48.926Z,94376.25
2022-09-21T20:57:17.158Z,94379.41
2022-09-21T20:59:44.636Z,94378.38
2022-09-21T21:02:12.954Z,94374.94
2022-09-21T21:04:40.354Z,94381.84
2022-09-21T21:07:07.197Z,94373.28
2022-09-21T21:09:34.291Z,94372.78
2022-09-21T21:12:02.255Z,94384.75
2022-09-21T21:14:29.985Z,94375.97
2022-09-21T21:16:56.830Z,94382.97
2022-09-21T21:19:23.506Z,94386.41
2022-09-21T21:21:50.110Z,94376.84
2022-09-21T21:24:35.241Z,94376.66
2022-09-21T21:27:03.288Z,94372.47
2022-09-21T21:29:31.587Z,94372.22
2022-09-21T21:31:59.761Z,94375.34
2022-09-21T21:34:26.672Z,94374.00
2022-09-21T21:36:53.709Z,94374.31
2022-09-21T21:39:20.468Z,94371.97
2022-09-21T21:41:47.404Z,94369.47
2022-09-21T21:44:14.144Z,94370.25
2022-09-21T21:46:40.748Z,94369.75
2022-09-21T21:49:07.347Z,94367.19
2022-09-21T21:51:33.991Z,94374.00
2022-09-21T21:54:00.662Z,94369.22
2022-09-21T21:56:27.351Z,94363.19
2022-09-21T21:58:55.313Z,94367.56
2022-09-21T22:01:25.280Z,94366.13
2022-09-21T22:04:02.624Z,94363.91
2022-09-21T22:06:31.246Z,94364.81
2022-09-21T22:08:58.142Z,94359.81
2022-09-21T22:11:26.727Z,94369.66
2022-09-21T22:13:55.004Z,94359.22
2022-09-21T22:16:24.264Z,94370.88
2022-09-21T22:18:52.420Z,94365.88
2022-09-21T22:21:27.348Z,94366.19
2022-09-21T22:24:02.559Z,94363.84
2022-09-21T22:26:36.498Z,94359.59
2022-09-21T22:29:05.728Z,94359.38
2022-09-21T22:31:38.692Z,94360.56
2022-09-21T22:34:06.215Z,94356.06
2022-09-21T22:36:34.469Z,94360.06
2022-09-21T22:39:02.185Z,94357.59
2022-09-21T22:41:31.501Z,94361.63
2022-09-21T22:43:59.439Z,94352.28
2022-09-21T22:46:27.587Z,94356.66
2022-09-21T22:48:54.301Z,94362.09
2022-09-21T22:51:21.797Z,94364.22
2022-09-21T22:53:49.955Z,94364.09
2022-09-21T22:56:19.177Z,94361.66
2022-09-21T22:58:50.798Z,94365.72
2022-09-21T23:01:30.704Z,94371.59
2022-09-21T23:04:00.292Z,94370.38
2022-09-21T23:06:29.729Z,94367.44
2022-09-21T23:08:57.580Z,94370.66
2022-09-21T23:11:28.908Z,94370.19
2022-09-21T23:13:56.835Z,94381.09
2022-09-21T23:16:25.184Z,94375.91
2022-09-21T23:18:52.350Z,94386.66
2022-09-21T23:21:21.851Z,94379.41
2022-09-21T23:23:49.325Z,94377.22
2022-09-21T23:26:15.990Z,94373.19
2022-09-21T23:28:44.810Z,94368.28
2022-09-21T23:31:14.692Z,94367.03
2022-09-21T23:33:44.955Z,94368.25
2022-09-21T23:36:13.567Z,94372.19
2022-09-21T23:38:40.998Z,94371.03
2022-09-21T23:41:13.431Z,94375.78
2022-09-21T23:43:41.774Z,94369.97
2022-09-21T23:46:10.519Z,94362.16
2022-09-21T23:48:37.650Z,94370.00
2022-09-21T23:51:04.955Z,94361.50
2022-09-21T23:53:32.186Z,94357.88
2022-09-21T23:55:58.958Z,94354.31
2022-09-21T23:58:27.092Z,94361.22
